Airport View

Enter AWOS ICAO identifier for current METAR.

ex. KFNL

KAXA 210810Z AUTO 32007KT 10SM OVC011 04/04 A3008 RMK A01

21 Oct 2020 08:13

Frequency: 118.475

Phone: 515-295-9634

Other Area AWOS: KEST - KFXY - KCAV - KFOD

TAF KFOD 210530Z 2106/2206 26006KT P6SM BKN020 FM211300 33003KT P6SM BKN060 FM211800 06004KT P6SM BKN150